This is the latest recevied weather packets stored in our database for station/object SP3WRO-13. If no packets are shown the sender has not sent any weather packets the latest 10 day(s).
| Time | Temp. | Humidity | Pressure | Rain* | Wind** | Luminosity | Snow |
|---|---|---|---|---|---|---|---|
| 1788339671 | 18.89° C | 74% | 1016.3 hPa | 5.84 mm | - | 727 W/m² | - |
| 1788338771 | 17.78° C | 78% | 1016.3 hPa | 5.84 mm | - | 286 W/m² | - |
| 1788337871 | 18.33° C | 81% | 1016.3 hPa | 6.1 mm | - | 248 W/m² | - |
| 1788336971 | 17.78° C | 79% | 1016.2 hPa | 6.1 mm | - | 551 W/m² | - |
| 1788336071 | 17.22° C | 80% | 1016.2 hPa | 6.1 mm | - | 313 W/m² | - |
| 1788335170 | 17.22° C | 81% | 1016.1 hPa | 6.1 mm | - | 448 W/m² | - |
| 1788334270 | 17.22° C | 82% | 1016 hPa | 6.1 mm | - | 366 W/m² | - |
| 1788333370 | 16.67° C | 85% | 1016.1 hPa | 6.1 mm | - | 334 W/m² | - |
| 1788332470 | 17.22° C | 82% | 1015.9 hPa | 6.1 mm | - | 281 W/m² | - |
| 1788331626 | 16.67° C | 86% | 1016 hPa | 6.1 mm | - | 256 W/m² | - |
| 1788331570 | 16.67° C | 86% | 1016 hPa | 6.1 mm | - | 256 W/m² | - |
| 1788330670 | 15.56° C | 90% | 1015.9 hPa | 6.1 mm | - | 217 W/m² | - |
| 1788329770 | 15.56° C | 88% | 1015.9 hPa | 6.1 mm | - | 179 W/m² | - |
| 1788328870 | 15° C | 87% | 1015.8 hPa | 6.6 mm | - | 145 W/m² | - |
| 1788327970 | 15° C | 88% | 1015.7 hPa | 6.6 mm | - | 112 W/m² | - |
| 1788327070 | 15° C | 89% | 1015.7 hPa | 6.6 mm | - | 83 W/m² | - |
| 1788326266 | 14.44° C | 91% | 1015.5 hPa | 6.6 mm | - | 61 W/m² | - |
| 1788326169 | 14.44° C | 91% | 1015.5 hPa | 6.6 mm | - | 61 W/m² | - |
| 1788324478 | 11.67° C | 97% | 1015.2 hPa | 6.6 mm | - | 29 W/m² | - |
| 1788323528 | 11.11° C | 97% | 1015.2 hPa | 6.6 mm | - | 17 W/m² | - |
| 1788300145 | 13.89° C | 96% | 1014.6 hPa | 6.35 mm | - | - | - |
| 1788299261 | 13.89° C | 96% | 1014.6 hPa | 6.35 mm | - | - | - |
| 1788298268 | 14.44° C | 96% | 1014.4 hPa | 6.35 mm | - | - | - |
| 1788293767 | 16.11° C | 86% | 1014.4 hPa | 5.84 mm | - | - | - |
| 1788290167 | 14.44° C | 95% | 1013.7 hPa | 5.33 mm | - | - | - |
* Rain latest 24 hours (hover to see other rain measurements)
** Current wind speed in m/s (hover to see current wind gust speed)